Time;durP1;ratioP1;P1;durP2;ratioP2;P2;SDS_P1;SDS_P2;PMS_P1;PMS_P2;Temp;Humidity;BMP_temperature;BMP_pressure;BME280_temperature;BME280_humidity;BME280_pressure;Samples;Min_cycle;Max_cycle;Signal;HPM_P1;HPM_P2
2022/09/19 14:01:55;;;;;;;6.40;5.80;;;18.30;99.90;;;;;;5090431;27;20606;-67
2022/09/19 14:07:07;;;;;;;6.07;3.37;;;18.30;99.90;;;;;;5069114;28;20434;-67
2022/09/19 14:09:40;;;;;;;4.13;3.00;;;18.40;99.90;;;;;;5068947;28;20446;-68
2022/09/19 14:12:46;;;;;;;4.50;3.07;;;18.40;99.90;;;;;;5069086;28;20864;-68
2022/09/19 14:15:40;;;;;;;6.27;2.90;;;18.50;99.90;;;;;;5039164;28;20835;-69
2022/09/19 14:18:36;;;;;;;3.90;2.93;;;18.50;99.90;;;;;;5089048;28;20442;-71
2022/09/19 14:21:06;;;;;;;5.00;2.33;;;18.50;99.90;;;;;;5088572;28;20494;-67
2022/09/19 14:23:35;;;;;;;5.00;2.50;;;18.50;99.90;;;;;;5088709;28;20452;-70
2022/09/19 14:26:07;;;;;;;3.90;3.20;;;18.60;99.90;;;;;;5072232;28;20489;-72
2022/09/19 14:28:45;;;;;;;6.07;3.30;;;18.60;99.90;;;;;;5068626;28;20852;-68
2022/09/19 14:31:36;;;;;;;4.13;2.53;;;18.60;99.90;;;;;;5068940;28;20461;-69
2022/09/19 14:34:45;;;;;;;5.37;2.47;;;18.70;99.90;;;;;;5088705;28;20816;-65
2022/09/19 14:37:52;;;;;;;3.67;2.77;;;18.70;99.90;;;;;;5059708;28;20687;-65
2022/09/19 14:40:29;;;;;;;4.70;2.50;;;18.70;99.90;;;;;;5054931;28;20478;-66
2022/09/19 14:43:10;;;;;;;6.00;2.93;;;18.70;99.90;;;;;;5086727;28;20456;-66
2022/09/19 14:46:01;;;;;;;3.20;2.90;;;18.70;99.90;;;;;;5088727;28;20560;-68
2022/09/19 14:48:35;;;;;;;3.23;2.30;;;18.70;99.90;;;;;;5088657;28;20456;-66
2022/09/19 14:51:18;;;;;;;2.60;2.40;;;18.70;99.90;;;;;;5088286;28;20449;-66
2022/09/19 14:53:49;;;;;;;1.80;1.70;;;18.70;99.90;;;;;;5088641;28;20798;-66
2022/09/19 14:56:19;;;;;;;3.30;2.50;;;18.70;99.90;;;;;;5088501;28;20472;-67
2022/09/19 14:58:51;;;;;;;5.57;2.47;;;18.70;99.90;;;;;;5088525;28;20442;-67
2022/09/19 15:01:27;;;;;;;1.80;1.70;;;18.70;99.90;;;;;;5087987;28;20485;-67
2022/09/19 15:03:57;;;;;;;10.87;2.70;;;18.70;99.90;;;;;;5088419;28;20554;-66
2022/09/19 15:06:31;;;;;;;3.23;2.30;;;18.70;99.90;;;;;;5088354;28;20942;-67
2022/09/19 15:09:00;;;;;;;3.93;2.50;;;18.70;99.90;;;;;;5088502;28;20545;-66
2022/09/19 15:11:29;;;;;;;2.63;2.13;;;18.80;99.90;;;;;;5083372;28;20451;-67
2022/09/19 15:13:57;;;;;;;2.20;2.03;;;18.80;99.90;;;;;;5074804;28;20461;-67
2022/09/19 15:16:25;;;;;;;3.60;2.07;;;18.80;99.90;;;;;;5074809;28;20456;-66
2022/09/19 15:18:57;;;;;;;3.73;2.50;;;18.80;99.90;;;;;;5074551;28;20451;-67
2022/09/19 15:21:26;;;;;;;4.50;2.40;;;18.80;99.90;;;;;;5074411;28;20538;-67
2022/09/19 15:23:58;;;;;;;6.00;4.33;;;18.80;99.90;;;;;;5074398;28;20509;-67
2022/09/19 15:26:30;;;;;;;4.70;1.93;;;18.80;99.90;;;;;;5074359;28;20453;-66
2022/09/19 15:29:00;;;;;;;2.70;1.73;;;18.80;99.90;;;;;;5074441;28;20451;-67
2022/09/19 15:31:32;;;;;;;1.90;1.80;;;18.80;99.90;;;;;;5074274;28;20473;-66
2022/09/19 15:34:04;;;;;;;1.80;1.70;;;18.80;99.90;;;;;;5074418;28;20864;-67
2022/09/19 15:36:34;;;;;;;3.17;1.77;;;18.80;99.90;;;;;;5074235;28;20457;-66
2022/09/19 15:39:04;;;;;;;3.20;1.47;;;18.80;99.90;;;;;;5074401;28;20451;-66
2022/09/19 15:41:34;;;;;;;2.63;2.43;;;18.80;99.90;;;;;;5066780;28;20478;-64
2022/09/19 15:44:07;;;;;;;2.70;1.63;;;18.80;99.90;;;;;;5065117;28;20455;-64
2022/09/19 15:46:43;;;;;;;3.23;2.90;;;18.90;99.90;;;;;;5065187;28;20455;-67
2022/09/19 15:49:29;;;;;;;3.17;1.73;;;18.90;99.90;;;;;;5068979;28;20496;-66
2022/09/19 15:51:59;;;;;;;2.20;1.80;;;18.90;99.90;;;;;;5074167;28;20442;-69
2022/09/19 15:54:29;;;;;;;1.27;1.23;;;18.90;99.90;;;;;;5074025;28;20497;-69
2022/09/19 15:57:00;;;;;;;2.20;1.50;;;19.00;99.90;;;;;;5074009;28;20462;-69
2022/09/19 15:59:31;;;;;;;2.17;2.00;;;19.00;99.90;;;;;;5073319;28;20461;-69
2022/09/19 16:02:05;;;;;;;1.57;1.13;;;19.10;99.90;;;;;;5074087;28;20482;-69
2022/09/19 16:04:33;;;;;;;1.13;1.10;;;19.10;99.90;;;;;;5074085;28;20973;-69
2022/09/19 16:09:51;;;;;;;1.93;1.20;;;19.20;99.90;;;;;;5059466;28;21097;-68
2022/09/19 16:12:34;;;;;;;2.30;1.10;;;19.20;99.90;;;;;;5053363;28;20933;-67
2022/09/19 16:15:17;;;;;;;1.27;1.17;;;19.20;99.90;;;;;;5053597;28;20463;-69
2022/09/19 16:18:21;;;;;;;1.70;1.60;;;19.30;99.90;;;;;;5053628;28;20455;-69
2022/09/19 16:21:08;;;;;;;1.57;1.30;;;19.30;99.90;;;;;;5053534;28;20494;-69
2022/09/19 16:23:43;;;;;;;2.20;1.60;;;19.30;99.90;;;;;;5052368;28;20551;-70
2022/09/19 16:26:12;;;;;;;2.97;1.60;;;19.30;99.90;;;;;;5053415;28;20525;-69
2022/09/19 16:28:42;;;;;;;1.20;0.90;;;19.30;99.90;;;;;;5058407;28;20936;-70
2022/09/19 16:31:25;;;;;;;3.73;1.30;;;19.40;99.90;;;;;;5073253;28;20997;-68
2022/09/19 16:33:54;;;;;;;1.10;1.10;;;19.40;99.90;;;;;;5073431;28;20478;-70
2022/09/19 16:36:22;;;;;;;3.40;1.27;;;19.40;99.90;;;;;;5073492;28;20475;-69
2022/09/19 16:39:20;;;;;;;3.43;1.00;;;19.40;99.90;;;;;;5065544;28;20444;-66
2022/09/19 16:41:59;;;;;;;1.43;1.00;;;19.50;99.90;;;;;;5052921;28;20483;-66
2022/09/19 16:44:41;;;;;;;1.20;1.10;;;19.50;99.90;;;;;;5052693;28;20467;-67
2022/09/19 16:47:14;;;;;;;1.73;1.33;;;19.50;99.90;;;;;;5052799;28;20933;-65
2022/09/19 16:49:42;;;;;;;1.50;1.40;;;19.50;99.90;;;;;;5052432;28;20448;-65
2022/09/19 16:52:18;;;;;;;1.77;1.47;;;19.50;99.90;;;;;;5054337;28;20468;-68
2022/09/19 16:54:45;;;;;;;1.57;1.23;;;19.60;99.90;;;;;;5052843;28;20467;-68
2022/09/19 16:57:13;;;;;;;1.27;0.90;;;19.60;99.90;;;;;;5052286;28;20450;-66
2022/09/19 16:59:42;;;;;;;1.20;1.10;;;19.60;99.90;;;;;;5052725;28;21040;-66
2022/09/19 17:02:16;;;;;;;2.20;1.57;;;19.70;99.90;;;;;;5053481;28;20491;-67
2022/09/19 17:04:43;;;;;;;2.50;0.90;;;19.80;99.90;;;;;;5053202;28;20566;-66
2022/09/19 17:07:11;;;;;;;0.90;0.90;;;19.80;99.90;;;;;;5052878;28;20460;-67
2022/09/19 17:09:38;;;;;;;2.40;1.17;;;19.90;99.90;;;;;;5051740;28;20993;-67
2022/09/19 17:12:05;;;;;;;1.43;1.10;;;19.90;99.90;;;;;;5052315;28;20448;-68
2022/09/19 17:14:33;;;;;;;1.47;1.23;;;20.00;99.90;;;;;;5052902;28;20467;-65
2022/09/19 17:17:01;;;;;;;1.97;1.37;;;19.90;99.90;;;;;;5052236;28;20448;-66
2022/09/19 17:19:28;;;;;;;2.30;1.70;;;20.00;99.90;;;;;;5052096;28;20483;-66
2022/09/19 17:21:55;;;;;;;1.30;1.20;;;20.00;99.90;;;;;;5051932;28;20507;-66
2022/09/19 17:24:22;;;;;;;1.00;1.00;;;20.00;99.90;;;;;;5051848;28;20550;-66
2022/09/19 17:26:51;;;;;;;1.33;0.90;;;20.00;99.90;;;;;;5051976;28;20471;-67
2022/09/19 17:29:18;;;;;;;1.40;1.20;;;20.00;99.90;;;;;;5051801;28;20846;-67
2022/09/19 17:31:45;;;;;;;1.90;1.50;;;20.00;99.90;;;;;;5051893;28;20846;-66
2022/09/19 17:34:16;;;;;;;1.93;1.40;;;20.10;99.90;;;;;;5051551;28;20448;-66
2022/09/19 17:36:44;;;;;;;1.57;1.20;;;20.10;99.90;;;;;;5052244;28;20501;-66
2022/09/19 17:39:11;;;;;;;0.80;0.80;;;20.10;99.90;;;;;;5052390;28;20526;-69
2022/09/19 17:41:38;;;;;;;1.40;1.03;;;20.10;99.90;;;;;;5052579;28;20839;-67
2022/09/19 17:44:06;;;;;;;1.23;1.13;;;20.20;99.90;;;;;;5051986;28;20451;-66
2022/09/19 17:46:33;;;;;;;3.40;3.10;;;20.10;99.90;;;;;;5051957;28;20543;-67
2022/09/19 17:49:00;;;;;;;1.30;1.17;;;20.20;99.90;;;;;;5051356;28;20451;-66
2022/09/19 17:51:29;;;;;;;1.53;0.93;;;20.20;99.90;;;;;;5051671;28;20440;-67
2022/09/19 17:53:56;;;;;;;1.13;0.80;;;20.20;99.90;;;;;;5051681;28;20488;-67
2022/09/19 17:56:25;;;;;;;1.80;1.03;;;20.30;99.90;;;;;;5052343;28;20530;-65
2022/09/19 17:58:55;;;;;;;1.57;0.70;;;20.30;99.90;;;;;;5051206;28;20487;-64
2022/09/19 18:04:09;;;;;;;2.40;1.20;;;20.30;99.90;;;;;;5051684;28;20430;-66
2022/09/19 18:06:38;;;;;;;1.17;0.87;;;20.30;99.90;;;;;;5051671;28;20459;-64
2022/09/19 18:09:07;;;;;;;0.90;0.80;;;20.30;99.90;;;;;;5051612;28;20452;-68
2022/09/19 18:11:35;;;;;;;3.27;1.13;;;20.30;99.90;;;;;;5051928;28;20447;-66
2022/09/19 18:14:03;;;;;;;1.30;1.23;;;20.30;99.60;;;;;;5051847;28;20981;-66
2022/09/19 18:16:30;;;;;;;0.60;0.60;;;20.30;99.90;;;;;;5051641;28;20451;-65
2022/09/19 18:18:59;;;;;;;2.03;0.90;;;20.40;99.90;;;;;;5051195;28;20459;-67
2022/09/19 18:21:26;;;;;;;2.33;1.43;;;20.30;99.90;;;;;;5052031;28;20895;-67
2022/09/19 18:23:56;;;;;;;2.80;1.00;;;20.40;99.90;;;;;;5053702;28;20462;-67
2022/09/19 18:26:24;;;;;;;1.60;1.50;;;20.40;99.90;;;;;;5051863;28;20509;-67
2022/09/19 18:28:53;;;;;;;1.07;0.80;;;20.40;99.90;;;;;;5049893;28;20544;-66
2022/09/19 18:31:21;;;;;;;1.00;1.00;;;20.40;99.90;;;;;;5052202;28;20987;-67
2022/09/19 18:33:48;;;;;;;0.80;0.80;;;20.40;99.90;;;;;;5051479;28;20498;-68
2022/09/19 18:36:17;;;;;;;0.60;0.60;;;20.40;99.90;;;;;;5051391;28;20471;-66
2022/09/19 18:38:45;;;;;;;2.20;2.03;;;20.40;99.90;;;;;;5066764;28;20534;-64
2022/09/19 18:41:14;;;;;;;0.70;0.60;;;20.40;99.90;;;;;;5072130;28;20482;-63
2022/09/19 18:43:42;;;;;;;0.93;0.70;;;20.40;99.90;;;;;;5071763;28;20443;-61
2022/09/19 18:46:11;;;;;;;1.37;1.27;;;20.40;99.90;;;;;;5071137;28;20471;-63
2022/09/19 18:48:40;;;;;;;0.70;0.70;;;20.40;99.90;;;;;;5062775;28;20946;-60
2022/09/19 18:51:08;;;;;;;0.77;0.77;;;20.50;99.90;;;;;;5055710;28;20451;-63
2022/09/19 18:53:35;;;;;;;0.77;0.77;;;20.50;99.90;;;;;;5056144;28;20945;-65
2022/09/19 18:56:02;;;;;;;1.73;0.70;;;20.40;99.30;;;;;;5055372;28;20553;-65
2022/09/19 18:58:31;;;;;;;0.90;0.70;;;20.50;99.90;;;;;;5066122;28;20855;-67
2022/09/19 19:01:05;;;;;;;1.80;0.80;;;20.50;99.90;;;;;;5075678;28;20492;-65
2022/09/19 19:03:35;;;;;;;1.03;0.90;;;20.50;99.90;;;;;;5075702;28;20451;-65
2022/09/19 19:06:03;;;;;;;0.70;0.70;;;20.60;99.90;;;;;;5072340;28;20812;-67
2022/09/19 19:08:33;;;;;;;1.17;0.60;;;20.60;99.90;;;;;;5057424;28;20454;-66
2022/09/19 19:11:05;;;;;;;0.83;0.83;;;20.60;99.90;;;;;;5059419;28;20466;-67
2022/09/19 19:13:34;;;;;;;1.90;0.80;;;20.60;99.90;;;;;;5057401;28;20459;-69
2022/09/19 19:16:03;;;;;;;0.53;0.53;;;20.60;99.90;;;;;;5058369;28;20513;-70
2022/09/19 19:18:33;;;;;;;1.37;1.27;;;20.50;98.90;;;;;;5076882;28;20535;-66
2022/09/19 19:21:03;;;;;;;1.10;1.00;;;20.50;99.60;;;;;;5075100;28;20549;-65
2022/09/19 19:23:30;;;;;;;3.47;1.10;;;20.50;99.60;;;;;;5074323;28;20462;-66
2022/09/19 19:25:58;;;;;;;0.93;0.93;;;20.50;99.80;;;;;;5074019;28;20992;-66
2022/09/19 19:28:25;;;;;;;1.97;0.63;;;20.40;99.70;;;;;;5063094;28;21022;-66
2022/09/19 19:30:54;;;;;;;0.83;0.70;;;20.40;99.70;;;;;;5074374;28;20447;-64
2022/09/19 19:33:22;;;;;;;0.80;0.80;;;20.40;99.90;;;;;;5075596;28;20457;-66
2022/09/19 19:35:59;;;;;;;0.90;0.90;;;20.40;99.90;;;;;;5073550;28;20509;-65
